Greenville-Spartanburg International Airport (GSP)

 

Airport Diagram
Current Weather/Forecast (VFR Conditions)
METAR KGSP 172053Z 18003KT 10SM OVC055 07/01 A3018 RMK AO2 SLP222 60001 T00670011 55018
TAF KGSP 171739Z 1718/1818 VRB02KT P6SM SCT080 BKN200 TEMPO 1720/1724 4SM -RA OVC035 FM180100 21003KT P6SM VCSH BKN025 FM181000 00000KT 5SM BR BKN006 FM181500 00000KT P6SM SCT250

All Charts
General
Chart Name Download
AIRPORT DIAGRAM
TAKEOFF MINIMUMS
ALTERNATE MINIMUMS

Departures
Chart Name Download
BIMMR ONE (RNAV)
BWALL ONE (RNAV)

Arrivals
Chart Name Download
JUNNR TWO (RNAV)
MCHLN ONE (RNAV)
RCTOR ONE (RNAV)
UNMAN THREE (RNAV)
WORXS ONE (RNAV)

Approaches
Chart Name Download
ILS OR LOC RWY 04
ILS OR LOC RWY 22
ILS RWY 04 (SA CAT I)
ILS RWY 04 (CAT II - III)
RNAV (GPS) RWY 04
RNAV (GPS) RWY 22


Inbound Traffic (Arrivals)

No inbound traffic.


Outbound Traffic (Departures)

No outbound traffic.